createdAt,value
2023-02-25T00:01:14.492Z,99.90
2023-02-25T00:03:42.253Z,99.90
2023-02-25T00:06:15.528Z,99.90
2023-02-25T00:08:46.586Z,99.90
2023-02-25T00:11:19.123Z,99.90
2023-02-25T00:13:46.803Z,99.90
2023-02-25T00:16:15.314Z,99.90
2023-02-25T00:18:46.800Z,99.90
2023-02-25T00:21:16.894Z,99.90
2023-02-25T00:23:46.840Z,99.90
2023-02-25T00:26:14.707Z,99.90
2023-02-25T00:28:42.218Z,99.90
2023-02-25T00:31:16.393Z,99.90
2023-02-25T00:33:44.237Z,99.90
2023-02-25T00:36:15.235Z,99.90
2023-02-25T00:38:42.442Z,99.90
2023-02-25T00:41:14.110Z,99.90
2023-02-25T00:43:44.887Z,99.90
2023-02-25T00:46:12.551Z,99.90
2023-02-25T00:48:40.246Z,99.90
2023-02-25T00:51:13.493Z,99.90
2023-02-25T00:53:41.433Z,99.90
2023-02-25T00:56:11.275Z,99.90
2023-02-25T00:58:39.212Z,99.90
2023-02-25T01:01:16.009Z,99.90
2023-02-25T01:03:43.411Z,99.90
2023-02-25T01:06:11.123Z,99.90
2023-02-25T01:08:38.659Z,99.90
2023-02-25T01:11:21.095Z,99.90
2023-02-25T01:13:50.130Z,99.90
2023-02-25T01:16:21.109Z,99.90
2023-02-25T01:18:51.800Z,99.90
2023-02-25T01:21:26.103Z,99.90
2023-02-25T01:23:58.921Z,99.90
2023-02-25T01:26:31.763Z,99.90
2023-02-25T01:28:59.432Z,99.90
2023-02-25T01:31:31.676Z,99.90
2023-02-25T01:34:00.165Z,99.90
2023-02-25T01:36:29.392Z,99.90
2023-02-25T01:38:58.203Z,99.90
2023-02-25T01:41:26.881Z,99.90
2023-02-25T01:44:14.241Z,99.90
2023-02-25T01:46:46.758Z,99.90
2023-02-25T01:49:19.753Z,99.90
2023-02-25T01:51:51.943Z,99.90
2023-02-25T01:54:21.202Z,99.90
2023-02-25T01:56:54.899Z,99.90
2023-02-25T01:59:24.913Z,99.90
2023-02-25T02:01:52.816Z,99.90
2023-02-25T02:04:22.263Z,99.90
2023-02-25T02:06:50.908Z,99.90
2023-02-25T02:09:31.354Z,99.90
2023-02-25T02:12:07.067Z,99.90
2023-02-25T02:14:38.474Z,99.90
2023-02-25T02:17:20.918Z,99.90
2023-02-25T02:19:56.158Z,99.90
2023-02-25T02:22:51.066Z,99.90
2023-02-25T02:26:03.545Z,99.90
2023-02-25T02:28:46.401Z,99.90
2023-02-25T02:31:47.101Z,99.90
2023-02-25T02:34:40.679Z,99.90
2023-02-25T02:37:30.859Z,99.90
2023-02-25T02:40:23.803Z,99.90
2023-02-25T02:43:32.900Z,99.90
2023-02-25T02:46:24.691Z,99.90
2023-02-25T02:49:04.181Z,99.90
2023-02-25T02:51:44.600Z,99.90
2023-02-25T02:54:13.047Z,99.90
2023-02-25T02:56:43.776Z,99.90
2023-02-25T02:59:20.997Z,99.90
2023-02-25T03:02:27.191Z,99.90
2023-02-25T03:04:59.626Z,99.90
2023-02-25T03:07:28.973Z,99.90
2023-02-25T03:10:03.733Z,99.90
2023-02-25T03:12:32.629Z,99.90
2023-02-25T03:15:00.182Z,99.90
2023-02-25T03:17:31.302Z,99.90
2023-02-25T03:20:24.141Z,99.90
2023-02-25T03:22:54.372Z,99.90
2023-02-25T03:25:47.821Z,99.90
2023-02-25T03:28:31.246Z,99.90
2023-02-25T03:31:17.497Z,99.90
2023-02-25T03:33:54.841Z,99.90
2023-02-25T03:36:32.089Z,99.90
2023-02-25T03:39:09.894Z,99.90
2023-02-25T03:41:44.842Z,99.90
2023-02-25T03:44:17.532Z,99.90
2023-02-25T03:46:47.812Z,99.90
2023-02-25T03:49:33.084Z,99.90
2023-02-25T03:52:04.966Z,99.90
2023-02-25T03:54:32.442Z,99.90
2023-02-25T03:56:59.760Z,99.90
2023-02-25T03:59:28.406Z,99.90
2023-02-25T04:01:57.245Z,99.90
2023-02-25T04:04:24.861Z,99.90
2023-02-25T04:06:52.837Z,99.90
2023-02-25T04:09:20.476Z,99.90
2023-02-25T04:11:49.204Z,99.90
2023-02-25T04:14:18.620Z,99.90
2023-02-25T04:16:46.512Z,99.90
2023-02-25T04:19:13.909Z,99.90
2023-02-25T04:21:43.121Z,99.90
2023-02-25T04:24:10.931Z,99.90
2023-02-25T04:26:38.442Z,99.90
2023-02-25T04:29:05.757Z,99.90
2023-02-25T04:31:33.429Z,99.90
2023-02-25T04:34:00.725Z,99.90
2023-02-25T04:36:34.782Z,99.90
2023-02-25T04:39:04.845Z,99.90
2023-02-25T04:41:35.576Z,99.90
2023-02-25T04:44:07.081Z,99.90
2023-02-25T04:46:36.435Z,99.90
2023-02-25T04:49:04.586Z,99.90
2023-02-25T04:51:31.966Z,99.90
2023-02-25T04:53:59.234Z,99.90
2023-02-25T04:56:26.691Z,99.90
2023-02-25T04:58:54.190Z,99.90
2023-02-25T05:01:21.499Z,99.90
2023-02-25T05:03:48.776Z,99.90
2023-02-25T05:06:15.952Z,99.90
2023-02-25T05:08:43.080Z,99.90
2023-02-25T05:11:10.474Z,99.90
2023-02-25T05:13:37.854Z,99.90
2023-02-25T05:16:11.322Z,99.90
2023-02-25T05:18:43.368Z,99.90
2023-02-25T05:21:13.102Z,99.90
2023-02-25T05:23:41.761Z,99.90
2023-02-25T05:26:09.996Z,99.90
2023-02-25T05:28:38.107Z,99.90
2023-02-25T05:31:09.918Z,99.90
2023-02-25T05:33:38.923Z,99.90
2023-02-25T05:36:11.798Z,99.90
2023-02-25T05:38:40.179Z,99.90
2023-02-25T05:41:08.491Z,99.90
2023-02-25T05:43:37.351Z,99.90
2023-02-25T05:46:09.479Z,99.90
2023-02-25T05:48:36.869Z,99.90
2023-02-25T05:51:06.746Z,99.90
2023-02-25T05:53:34.542Z,99.90
2023-02-25T05:56:08.349Z,99.90
2023-02-25T05:58:35.959Z,99.90
2023-02-25T06:01:13.675Z,99.90
2023-02-25T06:03:42.863Z,99.90
2023-02-25T06:06:15.066Z,99.90
2023-02-25T06:08:46.064Z,99.90
2023-02-25T06:11:19.402Z,99.90
2023-02-25T06:13:51.990Z,99.90
2023-02-25T06:16:19.961Z,99.90
2023-02-25T06:18:48.675Z,99.90
2023-02-25T06:21:16.147Z,99.90
2023-02-25T06:23:44.444Z,99.90
2023-02-25T06:26:14.082Z,99.90
2023-02-25T06:28:41.575Z,99.90
2023-02-25T06:31:10.691Z,99.90
2023-02-25T06:33:39.433Z,99.90
2023-02-25T06:36:07.866Z,99.90
2023-02-25T06:38:35.883Z,99.90
2023-02-25T06:41:22.955Z,99.90
2023-02-25T06:43:53.516Z,99.90
2023-02-25T06:46:24.297Z,99.90
2023-02-25T06:48:52.241Z,99.90
2023-02-25T06:51:19.601Z,99.90
2023-02-25T06:53:47.830Z,99.90
2023-02-25T06:56:16.727Z,99.90
2023-02-25T06:58:43.991Z,99.90
2023-02-25T07:01:14.191Z,99.90
2023-02-25T07:03:43.655Z,99.90
2023-02-25T07:06:11.710Z,99.90
2023-02-25T07:08:38.965Z,99.90
2023-02-25T07:11:15.258Z,99.90
2023-02-25T07:13:43.810Z,99.90
2023-02-25T07:16:13.071Z,99.90
2023-02-25T07:18:41.496Z,99.90
2023-02-25T07:21:09.471Z,99.90
2023-02-25T07:23:36.700Z,99.90
2023-02-25T07:26:09.333Z,99.90
2023-02-25T07:28:37.306Z,99.90
2023-02-25T07:31:10.573Z,99.90
2023-02-25T07:33:37.790Z,99.90
2023-02-25T07:36:05.563Z,99.90
2023-02-25T07:38:32.925Z,99.90
2023-02-25T07:41:11.849Z,99.90
2023-02-25T07:43:40.100Z,99.90
2023-02-25T07:46:08.653Z,99.90
2023-02-25T07:48:36.838Z,99.90
2023-02-25T07:51:09.992Z,99.90
2023-02-25T07:53:38.182Z,98.90
2023-02-25T07:56:07.236Z,99.00
2023-02-25T07:58:35.530Z,98.80
2023-02-25T08:01:19.129Z,98.20
2023-02-25T08:03:49.503Z,98.00
2023-02-25T08:06:16.922Z,96.90
2023-02-25T08:08:44.352Z,96.50
2023-02-25T08:11:13.967Z,96.60
2023-02-25T08:13:41.681Z,96.60
2023-02-25T08:16:12.442Z,96.20
2023-02-25T08:18:42.872Z,95.10
2023-02-25T08:21:11.750Z,95.30
2023-02-25T08:23:39.811Z,95.70
2023-02-25T08:26:09.970Z,95.30
2023-02-25T08:28:37.600Z,94.50
2023-02-25T08:31:07.002Z,93.80
2023-02-25T08:33:34.639Z,94.00
2023-02-25T08:36:17.770Z,92.40
2023-02-25T08:38:45.018Z,92.20
2023-02-25T08:41:12.845Z,92.50
2023-02-25T08:43:41.118Z,92.60
2023-02-25T08:46:09.174Z,92.60
2023-02-25T08:48:38.368Z,89.90
2023-02-25T08:51:08.782Z,89.40
2023-02-25T08:53:40.627Z,86.10
2023-02-25T08:58:37.416Z,82.10
2023-02-25T09:01:16.668Z,78.10
2023-02-25T09:03:53.335Z,74.00
2023-02-25T09:06:28.139Z,73.10
2023-02-25T09:08:57.285Z,70.80
2023-02-25T09:11:25.952Z,64.60
2023-02-25T09:13:54.359Z,66.50
2023-02-25T09:16:21.952Z,62.70
2023-02-25T09:18:51.772Z,66.20
2023-02-25T09:21:20.052Z,63.00
2023-02-25T09:23:48.048Z,57.00
2023-02-25T09:26:15.587Z,55.50
2023-02-25T09:28:42.879Z,56.90
2023-02-25T09:31:10.303Z,54.80
2023-02-25T09:33:38.715Z,53.50
2023-02-25T09:36:12.736Z,51.90
2023-02-25T09:38:41.620Z,52.20
2023-02-25T09:41:27.414Z,51.40
2023-02-25T09:44:32.608Z,49.90
2023-02-25T09:47:12.733Z,47.90
2023-02-25T09:49:45.686Z,47.40
2023-02-25T09:52:29.054Z,46.90
2023-02-25T09:55:04.252Z,45.60
2023-02-25T09:57:35.752Z,42.40
2023-02-25T10:00:13.001Z,41.90
2023-02-25T10:02:56.704Z,40.20
2023-02-25T10:05:26.517Z,37.80
2023-02-25T10:08:33.858Z,37.00
2023-02-25T10:11:11.439Z,37.00
2023-02-25T10:14:03.509Z,35.90
2023-02-25T10:17:03.682Z,34.00
2023-02-25T10:20:01.717Z,33.70
2023-02-25T10:22:51.668Z,33.70
2023-02-25T10:25:32.962Z,34.20
2023-02-25T10:28:07.638Z,33.30
2023-02-25T10:30:49.196Z,30.20
2023-02-25T10:33:24.561Z,29.60
2023-02-25T10:36:03.407Z,29.60
2023-02-25T10:38:30.742Z,29.90
2023-02-25T10:40:59.258Z,30.00
2023-02-25T10:43:27.413Z,30.20
2023-02-25T10:46:15.455Z,30.20
2023-02-25T10:48:48.198Z,29.60
2023-02-25T10:51:17.143Z,28.10
2023-02-25T10:53:53.888Z,28.00
2023-02-25T10:56:22.180Z,29.30
2023-02-25T10:59:06.219Z,29.50
2023-02-25T11:01:40.630Z,28.50
2023-02-25T11:04:13.710Z,29.40
2023-02-25T11:06:43.577Z,29.00
2023-02-25T11:09:20.303Z,29.60
2023-02-25T11:11:56.268Z,36.00
2023-02-25T11:14:32.281Z,32.60
2023-02-25T11:17:08.570Z,34.00
2023-02-25T11:19:38.832Z,34.40
2023-02-25T11:22:20.374Z,38.50
2023-02-25T11:25:00.008Z,35.70
2023-02-25T11:27:54.199Z,36.00
2023-02-25T11:30:31.059Z,37.30
2023-02-25T11:32:58.990Z,37.50
2023-02-25T11:35:30.990Z,37.90
2023-02-25T11:38:12.700Z,37.90
2023-02-25T11:40:45.480Z,38.00
2023-02-25T11:43:19.770Z,37.90
2023-02-25T11:46:00.669Z,38.70
2023-02-25T11:49:01.984Z,39.40
2023-02-25T11:51:52.432Z,39.40
2023-02-25T11:54:31.709Z,39.50
2023-02-25T11:57:24.144Z,39.70
2023-02-25T12:00:28.942Z,40.00
2023-02-25T12:03:15.356Z,39.70
2023-02-25T12:05:51.562Z,40.60
2023-02-25T12:08:36.129Z,40.80
2023-02-25T12:11:40.910Z,40.90
2023-02-25T12:14:45.842Z,41.90
2023-02-25T12:17:50.971Z,41.90
2023-02-25T12:20:30.902Z,41.80
2023-02-25T12:23:29.027Z,42.50
2023-02-25T12:25:59.115Z,42.70
2023-02-25T12:28:38.416Z,43.30
2023-02-25T12:31:42.867Z,43.70
2023-02-25T12:34:16.571Z,43.30
2023-02-25T12:36:53.264Z,43.60
2023-02-25T12:39:39.584Z,43.90
2023-02-25T12:42:13.024Z,43.40
2023-02-25T12:44:43.406Z,44.10
2023-02-25T12:47:30.978Z,44.80
2023-02-25T12:50:07.729Z,45.00
2023-02-25T12:52:47.865Z,45.00
2023-02-25T12:55:42.549Z,45.00
2023-02-25T12:58:30.273Z,44.80
2023-02-25T13:01:32.688Z,45.20
2023-02-25T13:04:38.019Z,44.90
2023-02-25T13:07:14.626Z,44.80
2023-02-25T13:09:52.392Z,44.60
2023-02-25T13:12:34.749Z,44.70
2023-02-25T13:15:25.643Z,44.70
2023-02-25T13:18:17.013Z,45.00
2023-02-25T13:21:11.857Z,45.00
2023-02-25T13:23:58.191Z,44.60
2023-02-25T13:27:05.673Z,45.00
2023-02-25T13:30:03.090Z,45.20
2023-02-25T13:32:57.946Z,45.60
2023-02-25T13:35:44.301Z,45.60
2023-02-25T13:38:17.853Z,46.10
2023-02-25T13:40:51.807Z,46.50
2023-02-25T13:43:27.601Z,46.40
2023-02-25T13:46:37.689Z,46.90
2023-02-25T13:49:20.706Z,51.30
2023-02-25T13:52:07.525Z,51.30
2023-02-25T13:54:58.372Z,49.20
2023-02-25T13:57:38.134Z,46.90
2023-02-25T14:00:27.910Z,47.80
2023-02-25T14:03:14.379Z,47.70
2023-02-25T14:06:10.264Z,47.70
2023-02-25T14:08:53.454Z,47.70
2023-02-25T14:12:11.690Z,47.80
2023-02-25T14:14:58.083Z,47.90
2023-02-25T14:17:25.528Z,48.30
2023-02-25T14:20:12.006Z,48.30
2023-02-25T14:22:56.904Z,48.40
2023-02-25T14:25:50.873Z,49.00
2023-02-25T14:28:41.511Z,49.00
2023-02-25T14:31:29.172Z,49.00
2023-02-25T14:34:21.165Z,49.00
2023-02-25T14:36:49.824Z,49.10
2023-02-25T14:39:53.252Z,49.10
2023-02-25T14:42:32.717Z,49.70
2023-02-25T14:45:09.671Z,49.80
2023-02-25T14:47:52.926Z,49.70
2023-02-25T14:50:57.252Z,49.90
2023-02-25T14:53:50.574Z,50.20
2023-02-25T14:56:31.111Z,50.20
2023-02-25T14:59:21.794Z,50.30
2023-02-25T15:02:26.743Z,50.40
2023-02-25T15:05:13.584Z,50.60
2023-02-25T15:08:15.006Z,50.70
2023-02-25T15:11:20.577Z,51.00
2023-02-25T15:14:29.228Z,51.10
2023-02-25T15:17:23.916Z,51.60
2023-02-25T15:20:22.899Z,51.90
2023-02-25T15:23:17.002Z,51.70
2023-02-25T15:25:50.289Z,51.40
2023-02-25T15:28:33.505Z,51.90
2023-02-25T15:31:01.374Z,52.00
2023-02-25T15:33:42.058Z,51.90
2023-02-25T15:36:15.914Z,52.00
2023-02-25T15:38:52.400Z,52.40
2023-02-25T15:41:35.786Z,52.20
2023-02-25T15:44:09.875Z,52.20
2023-02-25T15:46:39.391Z,52.10
2023-02-25T15:49:26.189Z,52.00
2023-02-25T15:51:55.929Z,51.90
2023-02-25T15:54:30.069Z,52.90
2023-02-25T15:57:11.642Z,52.50
2023-02-25T15:59:43.607Z,52.60
2023-02-25T16:02:30.459Z,52.70
2023-02-25T16:05:12.253Z,52.70
2023-02-25T16:07:39.913Z,52.80
2023-02-25T16:10:24.632Z,53.30
2023-02-25T16:12:56.442Z,52.90
2023-02-25T16:15:41.851Z,52.70
2023-02-25T16:18:30.155Z,52.80
2023-02-25T16:21:06.503Z,53.70
2023-02-25T16:23:39.092Z,53.90
2023-02-25T16:26:28.472Z,53.80
2023-02-25T16:29:07.797Z,54.40
2023-02-25T16:31:42.453Z,54.20
2023-02-25T16:34:15.563Z,53.70
2023-02-25T16:37:03.801Z,54.10
2023-02-25T16:39:32.819Z,54.10
2023-02-25T16:42:32.238Z,54.50
2023-02-25T16:45:06.058Z,54.90
2023-02-25T16:47:39.775Z,55.00
2023-02-25T16:50:22.561Z,54.90
2023-02-25T16:52:51.662Z,55.00
2023-02-25T16:55:34.727Z,55.10
2023-02-25T16:58:07.809Z,55.00
2023-02-25T17:00:41.092Z,55.10
2023-02-25T17:03:11.970Z,55.80
2023-02-25T17:05:40.188Z,56.10
2023-02-25T17:08:15.720Z,56.10
2023-02-25T17:10:47.693Z,55.50
2023-02-25T17:13:25.524Z,56.60
2023-02-25T17:15:53.537Z,56.80
2023-02-25T17:18:42.399Z,56.40
2023-02-25T17:21:26.876Z,56.30
2023-02-25T17:23:55.597Z,56.40
2023-02-25T17:26:25.073Z,56.50
2023-02-25T17:28:57.156Z,59.60
2023-02-25T17:31:30.314Z,62.00
2023-02-25T17:34:01.561Z,62.30
2023-02-25T17:36:35.769Z,63.50
2023-02-25T17:39:18.716Z,65.60
2023-02-25T17:41:48.535Z,66.90
2023-02-25T17:44:45.154Z,68.10
2023-02-25T17:47:23.318Z,68.40
2023-02-25T17:49:52.041Z,68.30
2023-02-25T17:52:25.056Z,69.90
2023-02-25T17:55:08.644Z,69.00
2023-02-25T17:57:43.372Z,68.80
2023-02-25T18:00:25.329Z,71.70
2023-02-25T18:03:15.124Z,71.00
2023-02-25T18:06:03.888Z,72.90
2023-02-25T18:08:51.011Z,73.50
2023-02-25T18:11:31.512Z,74.80
2023-02-25T18:14:03.978Z,77.50
2023-02-25T18:16:45.239Z,78.60
2023-02-25T18:19:28.748Z,79.00
2023-02-25T18:21:57.212Z,81.20
2023-02-25T18:24:35.201Z,82.10
2023-02-25T18:27:08.748Z,83.50
2023-02-25T18:29:37.667Z,83.10
2023-02-25T18:32:07.797Z,83.20
2023-02-25T18:34:36.151Z,84.50
2023-02-25T18:37:04.636Z,85.50
2023-02-25T18:39:32.703Z,85.60
2023-02-25T18:42:01.074Z,85.60
2023-02-25T18:44:29.514Z,86.80
2023-02-25T18:46:58.137Z,87.50
2023-02-25T18:49:26.195Z,88.60
2023-02-25T18:51:54.891Z,88.10
2023-02-25T18:54:24.256Z,90.10
2023-02-25T18:56:53.101Z,90.20
2023-02-25T18:59:21.636Z,91.00
2023-02-25T19:01:50.119Z,90.80
2023-02-25T19:04:20.156Z,92.50
2023-02-25T19:06:48.678Z,91.60
2023-02-25T19:09:20.269Z,91.90
2023-02-25T19:11:48.396Z,93.20
2023-02-25T19:14:21.389Z,93.00
2023-02-25T19:16:49.959Z,93.80
2023-02-25T19:19:20.266Z,94.50
2023-02-25T19:21:48.788Z,94.80
2023-02-25T19:24:18.042Z,96.00
2023-02-25T19:26:47.626Z,95.10
2023-02-25T19:29:16.109Z,94.70
2023-02-25T19:31:44.948Z,95.60
2023-02-25T19:34:12.912Z,94.90
2023-02-25T19:36:41.562Z,94.60
2023-02-25T19:39:10.059Z,96.00
2023-02-25T19:41:39.715Z,96.40
2023-02-25T19:44:08.674Z,98.00
2023-02-25T19:46:37.671Z,98.20
2023-02-25T19:49:05.336Z,99.00
2023-02-25T19:51:33.929Z,99.30
2023-02-25T19:54:02.910Z,99.40
2023-02-25T19:56:31.376Z,99.90
2023-02-25T19:59:00.178Z,99.90
2023-02-25T20:01:28.207Z,99.90
2023-02-25T20:03:56.869Z,99.90
2023-02-25T20:06:26.962Z,99.50
2023-02-25T20:09:00.042Z,99.80
2023-02-25T20:11:28.290Z,99.90
2023-02-25T20:13:56.474Z,99.90
2023-02-25T20:16:25.933Z,99.90
2023-02-25T20:18:58.099Z,99.90
2023-02-25T20:21:28.505Z,99.90
2023-02-25T20:23:59.793Z,99.90
2023-02-25T20:26:33.666Z,99.90
2023-02-25T20:29:02.368Z,99.90
2023-02-25T20:31:32.830Z,99.90
2023-02-25T20:34:03.219Z,99.90
2023-02-25T20:36:49.776Z,99.90
2023-02-25T20:39:53.026Z,99.90
2023-02-25T20:42:32.339Z,99.90
2023-02-25T20:45:02.898Z,99.90
2023-02-25T20:47:37.868Z,99.90
2023-02-25T20:50:07.442Z,99.90
2023-02-25T20:52:35.551Z,99.90
2023-02-25T20:55:06.431Z,99.90
2023-02-25T20:57:35.084Z,99.90
2023-02-25T21:00:03.466Z,99.90
2023-02-25T21:02:32.054Z,99.90
2023-02-25T21:05:02.034Z,99.90
2023-02-25T21:07:30.564Z,99.90
2023-02-25T21:09:58.679Z,99.90
2023-02-25T21:12:27.086Z,99.90
2023-02-25T21:14:55.088Z,99.90
2023-02-25T21:17:23.098Z,99.90
2023-02-25T21:19:52.580Z,99.90
2023-02-25T21:22:22.099Z,99.90
2023-02-25T21:24:51.019Z,99.90
2023-02-25T21:27:19.093Z,99.90
2023-02-25T21:29:48.619Z,99.90
2023-02-25T21:32:17.044Z,99.90
2023-02-25T21:34:44.689Z,99.90
2023-02-25T21:37:12.675Z,99.90
2023-02-25T21:39:43.145Z,99.90
2023-02-25T21:42:10.724Z,99.90
2023-02-25T21:44:38.290Z,99.90
2023-02-25T21:47:06.269Z,99.90
2023-02-25T21:49:34.056Z,99.90
2023-02-25T21:52:01.871Z,99.90
2023-02-25T21:54:29.288Z,99.90
2023-02-25T21:56:56.945Z,99.90
2023-02-25T21:59:26.558Z,99.90
2023-02-25T22:01:54.326Z,99.90
2023-02-25T22:04:21.997Z,99.90
2023-02-25T22:06:49.346Z,99.90
2023-02-25T22:09:18.221Z,99.90
2023-02-25T22:11:45.799Z,99.90
2023-02-25T22:14:13.534Z,99.90
2023-02-25T22:16:41.656Z,99.90
2023-02-25T22:19:09.294Z,99.90
2023-02-25T22:21:37.083Z,99.90
2023-02-25T22:24:05.629Z,99.90
2023-02-25T22:26:35.321Z,99.90
2023-02-25T22:29:08.484Z,99.90
2023-02-25T22:31:36.688Z,99.90
2023-02-25T22:34:05.564Z,99.90
2023-02-25T22:36:33.070Z,99.90
2023-02-25T22:39:05.269Z,99.90
2023-02-25T22:41:32.718Z,99.90
2023-02-25T22:44:00.979Z,99.90
2023-02-25T22:46:36.379Z,99.90
2023-02-25T22:49:05.182Z,99.90
2023-02-25T22:51:35.826Z,99.90
2023-02-25T22:54:04.605Z,99.90
2023-02-25T22:56:32.348Z,99.90
2023-02-25T22:59:00.074Z,99.90
2023-02-25T23:01:28.120Z,99.90
2023-02-25T23:03:56.888Z,99.90
2023-02-25T23:06:42.193Z,99.90
2023-02-25T23:09:13.227Z,99.90
2023-02-25T23:11:42.554Z,99.90
2023-02-25T23:14:10.270Z,99.90
2023-02-25T23:16:43.122Z,99.90
2023-02-25T23:19:16.122Z,99.90
2023-02-25T23:21:43.589Z,99.90
2023-02-25T23:24:16.378Z,99.90
2023-02-25T23:26:46.262Z,99.90
2023-02-25T23:29:14.202Z,99.90
2023-02-25T23:31:47.239Z,99.90
2023-02-25T23:34:18.897Z,99.90
2023-02-25T23:36:46.300Z,99.90
2023-02-25T23:39:15.402Z,99.90
2023-02-25T23:41:52.032Z,99.90
2023-02-25T23:44:19.354Z,99.90
2023-02-25T23:46:46.739Z,99.90
2023-02-25T23:49:16.607Z,99.90
2023-02-25T23:51:45.931Z,99.90
2023-02-25T23:54:15.804Z,99.90
2023-02-25T23:56:43.214Z,99.90
2023-02-25T23:59:11.221Z,99.90
